createdAt,value
2023-03-07T00:08:52.385Z,14.90
2023-03-07T00:19:52.218Z,16.30
2023-03-07T00:30:52.096Z,19.60
2023-03-07T00:41:52.004Z,20.90
2023-03-07T00:52:51.867Z,19.60
2023-03-07T01:03:51.773Z,19.70
2023-03-07T01:14:51.695Z,16.40
2023-03-07T01:25:51.486Z,19.20
2023-03-07T01:36:51.415Z,18.30
2023-03-07T01:47:51.254Z,20.40
2023-03-07T01:58:51.115Z,14.10
2023-03-07T02:09:50.998Z,20.60
2023-03-07T02:20:50.888Z,17.20
2023-03-07T02:31:50.759Z,18.70
2023-03-07T02:42:50.629Z,11.80
2023-03-07T02:53:50.565Z,14.90
2023-03-07T03:04:50.475Z,13.30
2023-03-07T03:15:50.319Z,12.90
2023-03-07T03:26:50.138Z,16.40
2023-03-07T03:37:50.153Z,18.00
2023-03-07T03:48:49.892Z,10.30
2023-03-07T03:59:49.769Z,13.80
2023-03-07T04:10:49.708Z,19.70
2023-03-07T04:21:49.531Z,11.50
2023-03-07T04:32:49.393Z,17.50
2023-03-07T04:43:49.272Z,16.30
2023-03-07T04:54:49.147Z,15.70
2023-03-07T05:05:49.027Z,20.20
2023-03-07T05:16:48.896Z,20.20
2023-03-07T05:27:48.832Z,15.10
2023-03-07T05:38:48.659Z,15.90
2023-03-07T05:49:48.527Z,16.30
2023-03-07T06:00:48.491Z,15.30
2023-03-07T06:11:48.284Z,16.50
2023-03-07T06:22:48.167Z,14.30
2023-03-07T06:33:48.067Z,10.40
2023-03-07T06:44:47.933Z,11.20
2023-03-07T06:55:47.803Z,9.90
2023-03-07T07:06:47.675Z,15.80
2023-03-07T07:17:47.672Z,15.10
2023-03-07T07:28:47.440Z,8.90
2023-03-07T07:39:47.304Z,15.20
2023-03-07T07:50:47.206Z,8.20
2023-03-07T08:01:47.067Z,10.10
2023-03-07T08:12:46.942Z,10.20
2023-03-07T08:23:46.864Z,12.70
2023-03-07T08:34:46.717Z,10.80
2023-03-07T08:45:46.574Z,11.80
2023-03-07T08:56:46.489Z,15.40
2023-03-07T09:07:46.332Z,9.90
2023-03-07T09:18:46.206Z,15.60
2023-03-07T09:29:46.099Z,9.60
2023-03-07T09:40:45.965Z,10.90
2023-03-07T09:51:45.905Z,7.00
2023-03-07T10:02:45.730Z,9.10
2023-03-07T10:13:45.600Z,7.50
2023-03-07T10:24:45.494Z,5.30
2023-03-07T10:35:45.351Z,11.00
2023-03-07T10:46:55.181Z,13.10
2023-03-07T10:57:45.112Z,7.70
2023-03-07T11:08:44.978Z,6.00
2023-03-07T11:19:44.877Z,8.30
2023-03-07T11:30:44.767Z,7.00
2023-03-07T11:41:44.599Z,14.20
2023-03-07T11:52:44.478Z,9.80
2023-03-07T12:03:44.379Z,9.30
2023-03-07T12:14:44.240Z,7.20
2023-03-07T12:25:44.124Z,7.80
2023-03-07T12:36:44.045Z,7.30
2023-03-07T12:47:43.874Z,5.80
2023-03-07T12:58:43.765Z,5.70
2023-03-07T13:09:43.712Z,12.40
2023-03-07T13:20:43.504Z,18.50
2023-03-07T13:31:43.409Z,6.50
2023-03-07T13:42:43.252Z,8.10
2023-03-07T13:53:43.155Z,8.80
2023-03-07T14:04:43.014Z,9.20
2023-03-07T14:15:42.943Z,12.40
2023-03-07T14:26:42.774Z,6.00
2023-03-07T14:37:42.646Z,6.70
2023-03-07T14:48:42.520Z,5.40
2023-03-07T14:59:42.393Z,7.10
2023-03-07T15:10:42.287Z,4.10
2023-03-07T15:21:42.142Z,5.60
2023-03-07T15:32:42.119Z,6.90
2023-03-07T15:43:41.920Z,8.70
2023-03-07T15:54:41.793Z,7.40
2023-03-07T16:05:41.663Z,7.90
2023-03-07T16:16:43.970Z,8.90
2023-03-07T16:27:41.428Z,7.50
2023-03-07T16:38:41.305Z,7.20
2023-03-07T16:49:41.176Z,7.90
2023-03-07T17:00:41.073Z,13.90
2023-03-07T17:11:40.927Z,9.50
2023-03-07T17:22:40.866Z,7.40
2023-03-07T17:33:40.693Z,10.30
2023-03-07T17:44:40.609Z,11.80
2023-03-07T17:55:40.664Z,17.90
2023-03-07T18:06:41.059Z,12.80
2023-03-07T18:17:47.888Z,11.20
2023-03-07T18:28:40.095Z,8.60
2023-03-07T18:39:39.984Z,8.60
2023-03-07T18:50:39.834Z,7.60
2023-03-07T19:01:39.837Z,6.90
2023-03-07T19:12:39.608Z,8.70
2023-03-07T19:23:39.482Z,9.10
2023-03-07T19:34:39.358Z,9.00
2023-03-07T19:45:39.267Z,11.60
2023-03-07T19:56:39.189Z,12.40
2023-03-07T20:07:38.988Z,8.10
2023-03-07T20:18:38.884Z,12.70
2023-03-07T20:29:38.742Z,17.40
2023-03-07T20:40:38.629Z,7.10
2023-03-07T20:51:38.508Z,7.90
2023-03-07T21:02:38.501Z,12.90
2023-03-07T21:13:38.272Z,17.40
2023-03-07T21:24:38.145Z,8.60
2023-03-07T21:35:38.171Z,10.90
2023-03-07T21:46:37.917Z,11.40
2023-03-07T21:57:37.774Z,9.70
2023-03-07T22:08:37.658Z,8.50
2023-03-07T22:19:37.556Z,6.10
2023-03-07T22:30:37.402Z,8.90
2023-03-07T22:41:37.340Z,6.10
2023-03-07T22:52:37.191Z,8.10
2023-03-07T23:03:37.119Z,12.40
2023-03-07T23:14:36.934Z,8.10
2023-03-07T23:25:36.846Z,7.80
2023-03-07T23:36:36.712Z,7.00
2023-03-07T23:47:36.571Z,8.30
2023-03-07T23:58:36.436Z,5.40
